Time;durP1;ratioP1;P1;durP2;ratioP2;P2;SDS_P1;SDS_P2;PMS_P1;PMS_P2;Temp;Humidity;BMP_temperature;BMP_pressure;BME280_temperature;BME280_humidity;BME280_pressure;Samples;Min_cycle;Max_cycle;Signal;HPM_P1;HPM_P2
2023/03/01 00:00:39;;;;;;;109.10;53.30;;;;;;;-1.83;67.38;101429.98;103140;1257;138724;-72
2023/03/01 00:03:23;;;;;;;107.80;54.10;;;;;;;-1.82;67.25;101432.05;103337;1257;96527;-70
2023/03/01 00:05:51;;;;;;;103.80;52.10;;;;;;;-1.83;67.53;101426.38;102570;1257;1002599;-71
2023/03/01 00:08:40;;;;;;;105.90;52.50;;;;;;;-1.86;67.33;101427.31;103309;1259;96494;-71
2023/03/01 00:11:15;;;;;;;104.60;52.20;;;;;;;-1.87;67.30;101429.30;103157;1253;138718;-71
2023/03/01 00:13:55;;;;;;;109.90;53.10;;;;;;;-1.88;67.57;101426.54;103294;1255;108605;-70
2023/03/01 00:16:28;;;;;;;104.30;54.30;;;;;;;-1.89;67.63;101427.02;102599;1257;1003191;-70
2023/03/01 00:18:58;;;;;;;114.30;54.70;;;;;;;-1.90;67.51;101423.42;102391;1258;1003394;-71
2023/03/01 00:21:29;;;;;;;111.60;55.50;;;;;;;-1.90;67.48;101420.67;102367;1257;1002991;-71
2023/03/01 00:23:59;;;;;;;111.60;55.40;;;;;;;-1.92;67.49;101418.75;103201;1257;138786;-71
2023/03/01 00:26:30;;;;;;;108.10;56.40;;;;;;;-1.95;67.95;101415.40;103270;1254;107395;-70
2023/03/01 00:29:18;;;;;;;107.00;55.30;;;;;;;-1.96;67.78;101409.03;102404;1254;1003329;-70
2023/03/01 00:32:06;;;;;;;110.80;55.20;;;;;;;-2.00;67.79;101402.91;103255;1254;107135;-70
2023/03/01 00:34:55;;;;;;;104.50;53.80;;;;;;;-2.01;68.19;101401.85;103295;1260;96410;-70
2023/03/01 00:37:42;;;;;;;103.30;54.00;;;;;;;-2.02;68.39;101399.23;103289;1257;109853;-71
2023/03/01 00:40:16;;;;;;;106.70;53.40;;;;;;;-2.05;68.25;101402.56;103191;1257;107472;-71
2023/03/01 00:42:54;;;;;;;102.80;54.80;;;;;;;-2.09;68.14;101400.53;103459;1256;139052;-71
2023/03/01 00:45:22;;;;;;;106.30;54.10;;;;;;;-2.08;68.40;101406.02;103353;1254;107689;-71
2023/03/01 00:48:10;;;;;;;106.40;53.70;;;;;;;-2.08;68.48;101408.91;102449;1262;1002735;-71
2023/03/01 00:50:51;;;;;;;103.20;54.50;;;;;;;-2.10;68.36;101403.92;103294;1255;111564;-71
2023/03/01 00:53:39;;;;;;;104.50;52.80;;;;;;;-2.11;68.44;101405.93;102450;1254;1002792;-71
2023/03/01 00:56:28;;;;;;;106.70;54.20;;;;;;;-2.10;68.43;101402.21;104557;1256;96965;-71
2023/03/01 00:58:56;;;;;;;97.70;51.70;;;;;;;-2.09;68.50;101400.21;102539;1254;1002975;-71
2023/03/01 01:01:43;;;;;;;108.00;53.20;;;;;;;-2.11;68.61;101404.22;102534;1254;1002757;-71
2023/03/01 01:04:13;;;;;;;107.20;53.60;;;;;;;-2.13;68.72;101399.52;103398;1253;110160;-71
2023/03/01 01:06:45;;;;;;;108.90;52.90;;;;;;;-2.15;68.72;101395.21;103511;1254;138614;-71
2023/03/01 01:09:17;;;;;;;104.30;53.40;;;;;;;-2.16;68.92;101394.29;103303;1256;96397;-71
2023/03/01 01:12:05;;;;;;;101.80;51.70;;;;;;;-2.18;69.02;101384.52;104698;1254;138913;-71
2023/03/01 01:14:36;;;;;;;101.10;51.70;;;;;;;-2.19;68.88;101380.21;102540;1256;1002973;-71
2023/03/01 01:17:07;;;;;;;97.50;50.00;;;;;;;-2.20;69.17;101373.21;102557;1252;1002838;-70
2023/03/01 01:19:54;;;;;;;101.20;52.40;;;;;;;-2.21;69.16;101372.99;102548;1257;1002880;-71
2023/03/01 01:22:42;;;;;;;98.50;50.20;;;;;;;-2.23;69.36;101369.16;103208;1258;96562;-71
2023/03/01 01:25:30;;;;;;;103.90;51.90;;;;;;;-2.25;69.20;101370.48;102426;1255;1016179;-71
2023/03/01 01:28:17;;;;;;;104.00;52.40;;;;;;;-2.26;69.01;101366.33;101850;1254;1003060;-72
2023/03/01 01:31:05;;;;;;;101.10;51.80;;;;;;;-2.26;69.43;101361.71;103431;1257;138833;-71
2023/03/01 01:33:44;;;;;;;104.50;52.80;;;;;;;-2.28;69.46;101362.35;103285;1253;106591;-71
2023/03/01 01:36:12;;;;;;;98.50;51.80;;;;;;;-2.28;69.54;101360.98;103127;1256;138627;-72
2023/03/01 01:38:43;;;;;;;100.90;51.90;;;;;;;-2.27;69.92;101360.67;103225;1254;107405;-71
2023/03/01 01:41:32;;;;;;;103.90;50.60;;;;;;;-2.29;69.51;101359.41;103164;1258;138811;-71
2023/03/01 01:44:19;;;;;;;101.10;51.90;;;;;;;-2.30;69.94;101356.98;103183;1257;108847;-71
2023/03/01 01:46:53;;;;;;;103.60;52.40;;;;;;;-2.31;69.94;101361.20;103455;1253;107740;-71
2023/03/01 01:49:36;;;;;;;100.00;51.10;;;;;;;-2.33;69.93;101359.09;103149;1254;138488;-71
2023/03/01 01:52:14;;;;;;;105.00;52.40;;;;;;;-2.34;69.76;101356.47;103165;1254;107869;-71
2023/03/01 01:54:46;;;;;;;101.60;51.50;;;;;;;-2.33;70.18;101352.26;104036;1254;139002;-71
2023/03/01 01:57:37;;;;;;;104.20;52.20;;;;;;;-2.34;70.19;101341.46;104042;1254;109816;-71
2023/03/01 02:00:19;;;;;;;102.40;51.10;;;;;;;-2.33;69.91;101346.31;101630;1254;1003417;-71
2023/03/01 02:03:09;;;;;;;97.50;51.00;;;;;;;-2.34;70.19;101347.95;102790;1254;1003067;-71
2023/03/01 02:06:03;;;;;;;99.10;50.20;;;;;;;-2.34;70.19;101342.16;103201;1254;139212;-71
2023/03/01 02:08:45;;;;;;;100.10;50.00;;;;;;;-2.35;70.24;101341.27;103344;1254;96425;-71
2023/03/01 02:11:22;;;;;;;102.40;50.30;;;;;;;-2.36;70.32;101335.45;103200;1257;138727;-71
2023/03/01 02:13:54;;;;;;;96.30;50.10;;;;;;;-2.36;70.06;101337.98;102570;1254;1003061;-72
2023/03/01 02:16:26;;;;;;;99.90;50.40;;;;;;;-2.37;70.36;101334.58;103570;1254;96531;-71
2023/03/01 02:19:14;;;;;;;103.20;51.40;;;;;;;-2.36;70.37;101336.30;103094;1254;138980;-71
2023/03/01 02:21:56;;;;;;;97.70;50.40;;;;;;;-2.36;70.44;101340.91;103882;1254;96313;-72
2023/03/01 02:24:51;;;;;;;104.10;51.70;;;;;;;-2.37;70.30;101339.14;104106;1254;138441;-71
2023/03/01 02:27:48;;;;;;;106.30;52.10;;;;;;;-2.39;70.74;101336.36;103185;1254;1002695;-72
2023/03/01 02:30:25;;;;;;;106.00;51.50;;;;;;;-2.38;70.63;101336.58;104697;1254;138786;-72
2023/03/01 02:33:05;;;;;;;94.60;49.90;;;;;;;-2.36;70.95;101329.14;103525;1254;108467;-71
2023/03/01 02:35:43;;;;;;;102.40;50.70;;;;;;;-2.36;70.68;101330.50;103703;1254;139325;-72
2023/03/01 02:38:11;;;;;;;101.40;51.40;;;;;;;-2.36;70.72;101322.85;103232;1254;110727;-71
2023/03/01 02:41:00;;;;;;;101.20;50.30;;;;;;;-2.37;70.43;101321.45;103470;1254;107610;-71
2023/03/01 02:43:33;;;;;;;99.70;48.90;;;;;;;-2.36;70.74;101321.30;103303;1254;139075;-71
2023/03/01 02:46:15;;;;;;;99.70;49.30;;;;;;;-2.37;70.59;101322.46;102572;1254;1003294;-71
2023/03/01 02:48:50;;;;;;;99.60;50.50;;;;;;;-2.39;70.77;101323.27;104237;1254;139381;-71
2023/03/01 02:51:43;;;;;;;101.70;50.00;;;;;;;-2.40;70.61;101317.27;104772;1254;109185;-70
2023/03/01 02:54:17;;;;;;;102.10;51.10;;;;;;;-2.40;70.82;101322.54;102319;1257;1002674;-70
2023/03/01 02:56:49;;;;;;;102.90;50.50;;;;;;;-2.41;70.85;101321.13;103290;1257;97963;-70
2023/03/01 02:59:20;;;;;;;102.10;49.00;;;;;;;-2.42;70.97;101325.71;103591;1254;138489;-70
2023/03/01 03:01:50;;;;;;;103.50;51.00;;;;;;;-2.43;70.89;101322.75;104391;1254;96425;-71
2023/03/01 03:04:27;;;;;;;101.80;50.00;;;;;;;-2.45;70.61;101310.98;103515;1255;109796;-70
2023/03/01 03:07:06;;;;;;;97.00;49.30;;;;;;;-2.46;70.94;101302.25;103185;1257;138656;-70
2023/03/01 03:09:53;;;;;;;100.90;49.90;;;;;;;-2.45;71.05;101299.55;102592;1254;1002477;-70
2023/03/01 03:12:39;;;;;;;;;;;;;;;-2.47;70.74;101298.27;103895;1254;1002362;-70
2023/03/01 03:15:12;;;;;;;99.20;46.80;;;;;;;-2.50;70.95;101296.15;104246;1254;94430;-70
2023/03/01 03:17:45;;;;;;;91.80;46.90;;;;;;;-2.51;70.80;101300.19;103219;1257;138558;-70
2023/03/01 03:20:28;;;;;;;99.00;48.30;;;;;;;-2.52;71.01;101290.94;102421;1254;1003108;-70
2023/03/01 03:22:59;;;;;;;99.10;49.50;;;;;;;-2.54;71.00;101291.86;103254;1254;96437;-70
2023/03/01 03:25:30;;;;;;;97.30;48.40;;;;;;;-2.55;71.08;101284.35;103358;1257;347998;-71
2023/03/01 03:27:58;;;;;;;95.70;47.80;;;;;;;-2.55;70.99;101281.27;103733;1254;96335;-71
2023/03/01 03:30:28;;;;;;;93.40;46.80;;;;;;;-2.58;71.03;101279.64;102463;1254;1003787;-70
2023/03/01 03:33:00;;;;;;;92.00;47.60;;;;;;;-2.60;71.16;101277.37;103231;1253;108790;-70
2023/03/01 03:35:29;;;;;;;95.90;48.30;;;;;;;-2.62;71.15;101272.70;103116;1257;139535;-70
2023/03/01 03:38:05;;;;;;;95.60;50.40;;;;;;;-2.63;71.27;101269.59;102592;1254;1003699;-71
2023/03/01 03:41:02;;;;;;;99.80;50.00;;;;;;;-2.64;71.20;101266.84;103487;1254;95184;-70
2023/03/01 03:43:34;;;;;;;102.60;50.00;;;;;;;-2.63;71.28;101272.16;103127;1257;1002456;-70
2023/03/01 03:46:13;;;;;;;106.00;51.70;;;;;;;-2.62;71.20;101277.10;102631;1253;1003665;-70
2023/03/01 03:49:01;;;;;;;99.10;49.50;;;;;;;-2.60;71.38;101286.54;103264;1257;138970;-71
2023/03/01 03:51:49;;;;;;;104.50;50.80;;;;;;;-2.61;71.34;101281.21;104150;1256;107149;-71
2023/03/01 03:54:24;;;;;;;98.10;50.20;;;;;;;-2.60;71.50;101279.06;103211;1254;138615;-71
2023/03/01 03:57:00;;;;;;;101.20;49.60;;;;;;;-2.61;71.51;101269.66;103349;1253;109881;-71
2023/03/01 03:59:47;;;;;;;93.20;48.60;;;;;;;-2.63;71.38;101267.86;103170;1256;138810;-70
2023/03/01 04:02:34;;;;;;;99.10;49.00;;;;;;;-2.64;71.35;101269.20;102619;1254;1003782;-70
2023/03/01 04:05:10;;;;;;;;;;;;;;;-2.65;71.39;101271.05;103265;1254;108828;-70
2023/03/01 04:07:36;;;;;;;;;;;;;;;-2.65;71.58;101264.06;103266;1254;96441;-70
2023/03/01 04:10:23;;;;;;;103.40;48.70;;;;;;;-2.65;71.55;101261.52;102534;1256;1003588;-70
2023/03/01 04:13:13;;;;;;;101.70;50.20;;;;;;;-2.63;71.73;101253.91;103174;1253;138828;-70
2023/03/01 04:16:00;;;;;;;98.80;49.30;;;;;;;-2.63;71.46;101252.20;103323;1253;97029;-70
2023/03/01 04:18:38;;;;;;;102.80;52.20;;;;;;;-2.62;71.60;101254.79;102381;1254;1002574;-70
2023/03/01 04:21:16;;;;;;;105.10;49.80;;;;;;;-2.62;71.48;101253.27;103242;1253;96462;-70
2023/03/01 04:23:44;;;;;;;100.70;49.80;;;;;;;-2.64;71.18;101257.12;103205;1257;139478;-70
2023/03/01 04:26:21;;;;;;;102.10;50.90;;;;;;;-2.66;71.49;101264.52;103327;1253;107129;-70
2023/03/01 04:29:08;;;;;;;101.70;48.60;;;;;;;-2.66;71.40;101266.04;103403;1252;96534;-70
2023/03/01 04:31:48;;;;;;;104.80;49.80;;;;;;;-2.67;71.66;101257.86;102542;1254;1003105;-70
2023/03/01 04:34:30;;;;;;;100.20;49.50;;;;;;;-2.67;71.98;101261.44;103319;1253;96579;-70
2023/03/01 04:37:18;;;;;;;102.80;49.80;;;;;;;-2.68;71.79;101250.30;102468;1257;1003417;-70
2023/03/01 04:39:47;;;;;;;99.80;50.10;;;;;;;-2.69;71.87;101243.49;102564;1253;1002626;-70
2023/03/01 04:42:34;;;;;;;97.00;49.70;;;;;;;-2.70;71.86;101239.67;103269;1253;138766;-70
2023/03/01 04:45:16;;;;;;;99.60;50.50;;;;;;;-2.69;71.61;101236.13;103366;1253;108608;-70
2023/03/01 04:47:53;;;;;;;99.60;49.70;;;;;;;-2.70;71.55;101236.61;103173;1253;138747;-70
2023/03/01 04:50:41;;;;;;;99.90;50.20;;;;;;;-2.71;71.71;101234.17;103276;1256;110702;-70
2023/03/01 04:53:29;;;;;;;99.90;50.70;;;;;;;-2.72;71.92;101232.77;103049;1253;138619;-70
2023/03/01 04:56:18;;;;;;;101.40;49.10;;;;;;;-2.70;72.17;101231.30;103341;1252;96357;-70
2023/03/01 04:59:00;;;;;;;98.60;48.20;;;;;;;-2.71;72.21;101222.77;103323;1254;107656;-70
2023/03/01 05:01:48;;;;;;;98.70;49.90;;;;;;;-2.73;72.19;101217.60;103255;1256;96438;-70
2023/03/01 05:04:35;;;;;;;102.00;50.20;;;;;;;-2.75;72.18;101218.92;103377;1253;110995;-70
2023/03/01 05:07:24;;;;;;;99.10;49.60;;;;;;;-2.74;72.15;101219.11;103211;1253;139351;-70
2023/03/01 05:10:12;;;;;;;94.80;48.20;;;;;;;-2.76;72.39;101220.05;103299;1253;96345;-70
2023/03/01 05:12:46;;;;;;;100.30;49.40;;;;;;;-2.77;72.15;101222.56;103332;1257;138335;-70
2023/03/01 05:15:29;;;;;;;94.90;49.10;;;;;;;-2.77;72.30;101223.77;103277;1254;96423;-70
2023/03/01 05:18:17;;;;;;;98.40;48.60;;;;;;;-2.80;72.36;101231.85;103217;1257;139813;-71
2023/03/01 05:21:05;;;;;;;98.00;49.30;;;;;;;-2.80;72.27;101236.92;101731;1253;1003612;-71
2023/03/01 05:23:36;;;;;;;97.40;48.50;;;;;;;-2.81;72.27;101233.16;103233;1257;138810;-71
2023/03/01 05:26:05;;;;;;;103.40;49.20;;;;;;;-2.81;72.53;101233.16;103346;1253;106894;-71
2023/03/01 05:28:40;;;;;;;97.80;49.20;;;;;;;-2.79;72.52;101233.07;103405;1253;96456;-69
2023/03/01 05:31:18;;;;;;;104.90;51.20;;;;;;;-2.78;72.34;101240.77;102534;1253;1002792;-71
2023/03/01 05:33:53;;;;;;;95.20;48.70;;;;;;;-2.75;72.52;101244.09;103262;1257;107174;-70
2023/03/01 05:36:29;;;;;;;94.00;47.90;;;;;;;-2.72;72.37;101254.23;102392;1254;1016307;-70
2023/03/01 05:39:17;;;;;;;96.30;48.30;;;;;;;-2.70;72.22;101257.58;103259;1257;107802;-70
2023/03/01 05:41:57;;;;;;;97.10;47.70;;;;;;;-2.65;72.69;101260.66;103151;1252;138654;-70
2023/03/01 05:44:29;;;;;;;95.10;48.00;;;;;;;-2.59;72.57;101267.33;103349;1252;110412;-70
2023/03/01 05:46:59;;;;;;;90.30;47.10;;;;;;;-2.53;72.63;101266.36;103313;1257;106885;-70
2023/03/01 05:49:47;;;;;;;94.40;48.30;;;;;;;-2.47;72.48;101268.48;103343;1254;96328;-70
2023/03/01 05:52:16;;;;;;;96.90;48.20;;;;;;;-2.40;72.55;101269.40;103195;1255;109407;-70
2023/03/01 05:54:43;;;;;;;90.40;47.00;;;;;;;-2.29;72.34;101274.23;103239;1257;138563;-71
2023/03/01 05:57:32;;;;;;;92.90;47.00;;;;;;;-2.19;72.16;101275.27;103251;1257;109576;-71
2023/03/01 06:00:13;;;;;;;93.50;47.30;;;;;;;-2.11;71.73;101271.98;103179;1253;138616;-71
2023/03/01 06:03:02;;;;;;;89.80;45.40;;;;;;;-1.99;71.79;101270.19;104783;1252;94777;-71
2023/03/01 06:05:49;;;;;;;94.50;45.20;;;;;;;-1.83;71.61;101265.27;103186;1257;139545;-69
2023/03/01 06:08:37;;;;;;;88.00;45.90;;;;;;;-1.65;71.39;101268.95;103327;1256;96414;-71
2023/03/01 06:11:25;;;;;;;89.60;45.90;;;;;;;-1.48;71.15;101257.77;103162;1253;138451;-69
2023/03/01 06:14:03;;;;;;;90.20;45.90;;;;;;;-1.29;70.77;101264.71;101820;1253;1016157;-71
2023/03/01 06:16:50;;;;;;;85.90;43.80;;;;;;;-1.08;70.45;101260.25;103351;1253;97014;-69
2023/03/01 06:19:37;;;;;;;86.60;45.20;;;;;;;-0.83;70.18;101255.04;103200;1253;137982;-72
2023/03/01 06:22:24;;;;;;;81.90;43.30;;;;;;;-0.52;69.75;101256.62;103984;1252;96463;-70
2023/03/01 06:25:14;;;;;;;88.70;44.30;;;;;;;-0.20;69.39;101253.78;103230;1253;138321;-70
2023/03/01 06:27:53;;;;;;;82.40;43.70;;;;;;;0.09;68.42;101254.22;103242;1253;107811;-69
2023/03/01 06:30:25;;;;;;;81.90;42.20;;;;;;;0.38;67.94;101248.13;103212;1252;138180;-70
2023/03/01 06:33:13;;;;;;;79.50;42.40;;;;;;;0.70;67.13;101253.54;103068;1254;108611;-71
2023/03/01 06:35:51;;;;;;;80.30;42.10;;;;;;;0.99;66.54;101249.60;103208;1253;138587;-71
2023/03/01 06:38:40;;;;;;;77.60;41.50;;;;;;;1.38;66.04;101254.40;103283;1254;110207;-70
2023/03/01 06:41:28;;;;;;;76.70;42.10;;;;;;;1.87;65.36;101252.48;103137;1257;138290;-70
2023/03/01 06:44:15;;;;;;;74.70;40.20;;;;;;;2.33;64.46;101253.99;103263;1257;97330;-73
2023/03/01 06:46:46;;;;;;;73.00;40.80;;;;;;;2.70;63.10;101249.46;103169;1254;106216;-73
2023/03/01 06:49:34;;;;;;;71.10;40.70;;;;;;;3.19;62.66;101255.88;102434;1257;1002813;-73
2023/03/01 06:52:04;;;;;;;69.00;40.10;;;;;;;3.66;61.83;101253.55;103167;1254;110590;-75
2023/03/01 06:54:52;;;;;;;68.40;38.70;;;;;;;4.24;60.26;101248.86;103190;1253;137451;-74
2023/03/01 06:57:32;;;;;;;67.00;38.60;;;;;;;4.78;59.55;101248.13;103335;1253;96339;-72
2023/03/01 07:00:14;;;;;;;64.40;37.40;;;;;;;5.31;58.42;101245.19;103226;1253;137301;-73
2023/03/01 07:02:41;;;;;;;61.60;37.60;;;;;;;5.81;57.15;101248.17;103882;1252;96407;-72
2023/03/01 07:05:29;;;;;;;61.30;36.30;;;;;;;6.36;56.04;101249.87;103110;1252;137507;-72
2023/03/01 07:07:57;;;;;;;59.70;36.20;;;;;;;6.87;54.86;101247.63;103175;1257;107681;-71
2023/03/01 07:10:38;;;;;;;55.00;35.10;;;;;;;7.49;54.60;101250.09;103226;1253;96508;-72
2023/03/01 07:13:06;;;;;;;56.10;35.60;;;;;;;8.07;53.73;101248.42;103171;1253;137789;-71
2023/03/01 07:15:36;;;;;;;58.40;35.60;;;;;;;8.54;52.47;101242.24;103083;1257;96539;-71
2023/03/01 07:18:04;;;;;;;52.50;34.70;;;;;;;9.04;51.78;101240.58;103192;1253;137526;-72
2023/03/01 07:20:31;;;;;;;52.60;34.90;;;;;;;9.58;50.60;101236.69;103240;1253;107311;-71
2023/03/01 07:22:59;;;;;;;57.20;35.80;;;;;;;10.03;49.33;101230.00;103311;1253;96425;-72
2023/03/01 07:25:26;;;;;;;55.90;36.00;;;;;;;10.54;48.29;101222.30;103167;1254;137490;-72
2023/03/01 07:27:54;;;;;;;52.30;34.50;;;;;;;11.19;47.88;101220.61;103133;1257;96495;-73
2023/03/01 07:30:22;;;;;;;50.70;34.50;;;;;;;11.84;47.01;101209.36;103166;1253;137832;-71
2023/03/01 07:32:56;;;;;;;52.60;35.10;;;;;;;12.37;46.00;101207.79;103234;1258;105649;-71
2023/03/01 07:35:26;;;;;;;51.90;33.70;;;;;;;12.73;44.93;101200.61;103192;1253;96437;-69
2023/03/01 07:37:53;;;;;;;50.90;34.10;;;;;;;13.14;44.28;101193.95;104252;1252;110728;-71
2023/03/01 07:40:20;;;;;;;48.20;32.80;;;;;;;13.68;43.55;101192.23;104214;1252;96466;-70
2023/03/01 07:42:47;;;;;;;46.50;31.80;;;;;;;14.22;42.74;101187.94;103143;1253;137558;-70
2023/03/01 07:45:15;;;;;;;48.50;32.60;;;;;;;14.65;41.83;101190.91;103248;1253;108703;-70
2023/03/01 07:47:42;;;;;;;44.80;31.80;;;;;;;15.02;40.88;101191.20;103251;1253;137916;-71
2023/03/01 07:50:13;;;;;;;48.80;32.50;;;;;;;15.41;40.52;101193.27;103227;1257;108411;-70
2023/03/01 07:52:40;;;;;;;46.20;31.80;;;;;;;15.86;39.46;101192.14;103403;1256;96561;-71
2023/03/01 07:55:09;;;;;;;45.90;31.40;;;;;;;16.23;38.59;101187.12;103249;1252;139551;-65
2023/03/01 07:57:36;;;;;;;44.60;30.90;;;;;;;16.65;38.01;101187.14;103550;1257;109504;-70
2023/03/01 08:00:03;;;;;;;44.20;31.60;;;;;;;17.14;37.69;101189.27;103232;1256;138373;-70
2023/03/01 08:02:38;;;;;;;43.10;30.60;;;;;;;17.57;36.55;101189.06;103239;1253;107262;-69
2023/03/01 08:05:05;;;;;;;46.00;31.80;;;;;;;17.89;36.30;101188.99;103244;1253;97216;-71
2023/03/01 08:07:34;;;;;;;40.80;30.40;;;;;;;18.18;35.64;101186.18;103148;1253;137754;-70
2023/03/01 08:10:01;;;;;;;47.50;31.30;;;;;;;18.35;34.97;101181.66;103348;1257;106418;-71
2023/03/01 08:12:28;;;;;;;44.70;31.90;;;;;;;18.61;34.72;101186.71;103340;1251;138570;-69
2023/03/01 08:14:56;;;;;;;42.80;30.10;;;;;;;18.86;34.05;101187.58;103373;1251;108750;-69
2023/03/01 08:17:24;;;;;;;41.90;29.70;;;;;;;19.00;33.84;101188.41;103495;1253;96509;-69
2023/03/01 08:19:51;;;;;;;43.40;29.50;;;;;;;19.16;33.21;101191.10;103433;1250;109798;-70
2023/03/01 08:22:18;;;;;;;42.90;33.40;;;;;;;19.13;33.13;101191.07;103343;1251;107921;-73
2023/03/01 08:24:45;;;;;;;49.20;37.40;;;;;;;19.20;32.96;101190.34;103306;1253;138547;-71
2023/03/01 08:27:13;;;;;;;43.20;31.20;;;;;;;19.22;32.63;101192.56;103393;1253;108105;-70
2023/03/01 08:29:41;;;;;;;47.60;32.90;;;;;;;19.08;32.23;101190.46;103308;1250;138017;-70
2023/03/01 08:32:08;;;;;;;43.10;31.80;;;;;;;18.91;32.24;101191.53;103493;1251;110283;-72
2023/03/01 08:34:36;;;;;;;38.50;28.90;;;;;;;19.00;32.25;101186.61;103652;1251;107317;-72
2023/03/01 08:37:03;;;;;;;39.40;29.00;;;;;;;18.92;31.84;101184.23;103387;1250;138055;-74
2023/03/01 08:39:31;;;;;;;39.10;28.20;;;;;;;18.60;31.54;101184.30;103927;1253;108606;-72
2023/03/01 08:41:59;;;;;;;40.80;28.40;;;;;;;18.42;31.76;101177.76;104201;1253;138579;-72
2023/03/01 08:44:26;;;;;;;39.70;27.60;;;;;;;18.30;31.85;101173.61;103972;1250;110710;-72
2023/03/01 08:46:55;;;;;;;36.90;27.10;;;;;;;18.17;31.93;101172.90;103338;1253;109644;-72
2023/03/01 08:49:24;;;;;;;39.20;27.70;;;;;;;18.01;31.88;101179.99;104161;1250;138046;-72
2023/03/01 08:51:51;;;;;;;38.40;28.80;;;;;;;18.20;32.36;101182.77;104317;1250;108557;-72
2023/03/01 08:54:22;;;;;;;36.30;27.70;;;;;;;18.35;31.92;101186.27;104109;1250;138912;-72
2023/03/01 08:56:49;;;;;;;39.90;26.90;;;;;;;18.28;31.72;101186.73;103697;1254;109196;-71
2023/03/01 08:59:18;;;;;;;35.90;26.60;;;;;;;18.19;31.97;101193.70;103675;1250;108264;-71
2023/03/01 09:01:45;;;;;;;36.10;26.20;;;;;;;18.39;31.94;101186.23;104223;1250;138080;-72
2023/03/01 09:04:13;;;;;;;38.10;26.40;;;;;;;18.66;31.75;101196.84;104498;1250;106785;-72
2023/03/01 09:06:41;;;;;;;35.20;25.70;;;;;;;18.65;31.46;101191.26;103635;1250;139286;-73
2023/03/01 09:09:16;;;;;;;35.80;26.30;;;;;;;18.45;31.40;101188.89;103354;1254;109636;-72
2023/03/01 09:11:45;;;;;;;35.30;25.30;;;;;;;18.00;31.02;101190.94;104772;1250;137992;-72
2023/03/01 09:14:13;;;;;;;37.60;26.00;;;;;;;17.58;31.68;101194.48;104223;1250;94549;-71
2023/03/01 09:16:40;;;;;;;32.10;24.70;;;;;;;17.48;31.77;101195.27;104252;1250;107199;-72
2023/03/01 09:19:08;;;;;;;34.40;24.20;;;;;;;17.34;31.89;101196.43;104530;1250;138505;-72
2023/03/01 09:21:35;;;;;;;34.70;25.10;;;;;;;17.36;31.77;101196.16;103418;1250;109556;-73
2023/03/01 09:24:08;;;;;;;36.10;26.30;;;;;;;17.25;31.72;101190.16;103180;1253;138028;-72
2023/03/01 09:26:35;;;;;;;35.60;25.60;;;;;;;17.15;32.07;101187.83;104830;1250;95031;-72
2023/03/01 09:29:02;;;;;;;34.00;25.50;;;;;;;17.15;32.31;101184.66;104527;1250;106940;-71
2023/03/01 09:31:29;;;;;;;34.70;25.20;;;;;;;17.07;32.21;101184.48;103316;1250;138235;-71
2023/03/01 09:33:57;;;;;;;36.20;26.00;;;;;;;16.92;32.27;101180.02;104824;1250;110773;-72
2023/03/01 09:36:26;;;;;;;40.20;26.50;;;;;;;16.49;32.18;101177.11;103949;1250;137933;-71
2023/03/01 09:38:54;;;;;;;36.40;24.90;;;;;;;16.07;32.57;101172.52;104375;1250;94937;-73
2023/03/01 09:41:36;;;;;;;35.40;24.70;;;;;;;15.78;32.94;101174.90;103833;1250;107046;-72
2023/03/01 09:44:11;;;;;;;34.70;24.60;;;;;;;15.69;33.26;101172.77;103952;1250;96610;-74
2023/03/01 09:46:44;;;;;;;38.90;24.80;;;;;;;15.77;33.31;101172.14;103384;1251;109059;-73
2023/03/01 09:49:16;;;;;;;33.50;23.10;;;;;;;15.63;33.27;101171.27;103717;1254;138011;-72
2023/03/01 09:51:55;;;;;;;33.30;23.30;;;;;;;15.74;33.42;101167.02;104418;1253;95221;-73
2023/03/01 09:54:22;;;;;;;30.30;22.20;;;;;;;15.75;33.50;101167.13;103686;1251;137575;-75
2023/03/01 09:57:07;;;;;;;31.80;22.50;;;;;;;15.74;33.49;101163.67;104700;1251;94408;-72
2023/03/01 09:59:46;;;;;;;33.70;22.20;;;;;;;15.85;33.66;101159.73;103271;1251;137726;-71
2023/03/01 10:02:26;;;;;;;30.60;20.40;;;;;;;16.02;33.47;101150.62;103196;1251;107593;-72
2023/03/01 10:04:58;;;;;;;29.40;20.30;;;;;;;16.15;33.56;101152.88;103322;1253;96446;-72
2023/03/01 10:07:34;;;;;;;34.80;19.80;;;;;;;16.25;33.38;101148.97;103294;1250;138263;-74
2023/03/01 10:10:04;;;;;;;29.40;19.40;;;;;;;16.44;33.56;101146.95;103419;1251;96628;-74
2023/03/01 10:12:37;;;;;;;27.20;19.70;;;;;;;16.70;33.64;101140.77;103260;1250;138206;-73
2023/03/01 10:15:12;;;;;;;27.50;19.80;;;;;;;16.98;33.39;101133.77;103928;1250;107314;-73
2023/03/01 10:17:45;;;;;;;25.50;18.40;;;;;;;16.96;32.92;101131.02;104316;1250;138332;-74
2023/03/01 10:20:23;;;;;;;31.80;19.40;;;;;;;17.08;33.02;101125.57;103800;1251;108150;-68
2023/03/01 10:22:52;;;;;;;25.40;17.70;;;;;;;17.18;32.75;101118.79;103345;1254;96988;-68
2023/03/01 10:25:48;;;;;;;24.70;17.30;;;;;;;17.08;32.36;101119.27;102713;1254;1003118;-67
2023/03/01 10:28:21;;;;;;;24.30;17.30;;;;;;;16.89;32.51;101118.17;104879;1252;107348;-68
2023/03/01 10:30:48;;;;;;;23.90;16.70;;;;;;;16.81;32.69;101118.68;104788;1250;138227;-68
2023/03/01 10:33:21;;;;;;;22.40;15.50;;;;;;;16.82;32.66;101117.23;103520;1253;106676;-68
2023/03/01 10:35:49;;;;;;;22.70;15.20;;;;;;;16.82;32.80;101119.52;104595;1253;138648;-69
2023/03/01 10:38:20;;;;;;;23.20;16.00;;;;;;;16.82;32.52;101120.23;103774;1250;110511;-68
2023/03/01 10:40:57;;;;;;;24.80;16.80;;;;;;;16.73;32.50;101123.60;103765;1250;106893;-71
2023/03/01 10:43:26;;;;;;;24.70;16.20;;;;;;;16.63;32.68;101121.39;103494;1254;137927;-72
2023/03/01 10:45:54;;;;;;;26.10;16.90;;;;;;;16.54;32.65;101118.45;103546;1250;108068;-71
2023/03/01 10:48:25;;;;;;;24.20;15.90;;;;;;;16.51;32.97;101119.42;103799;1250;137843;-71
2023/03/01 10:51:08;;;;;;;22.10;15.40;;;;;;;16.50;32.80;101115.80;103646;1250;110587;-72
2023/03/01 10:53:37;;;;;;;21.90;14.70;;;;;;;16.49;33.12;101112.34;103207;1254;138898;-71
2023/03/01 10:56:09;;;;;;;22.70;15.40;;;;;;;16.41;32.86;101109.86;103404;1253;96327;-70
2023/03/01 10:58:38;;;;;;;19.90;14.50;;;;;;;16.29;33.32;101110.73;103431;1250;107913;-68
2023/03/01 11:01:07;;;;;;;19.90;14.40;;;;;;;16.27;33.28;101111.66;104739;1251;137770;-69
2023/03/01 11:03:36;;;;;;;19.60;13.90;;;;;;;16.17;33.33;101114.05;104156;1254;109367;-70
2023/03/01 11:06:20;;;;;;;19.60;13.90;;;;;;;15.90;33.26;101113.39;104614;1251;139181;-69
2023/03/01 11:08:49;;;;;;;21.70;13.90;;;;;;;15.75;33.46;101111.39;104534;1250;94380;-69
2023/03/01 11:11:32;;;;;;;20.10;13.90;;;;;;;15.47;33.93;101110.16;103468;1254;107225;-69
2023/03/01 11:14:04;;;;;;;20.40;13.30;;;;;;;15.45;34.17;101112.20;103939;1250;96461;-68
2023/03/01 11:17:19;;;;;;;21.50;13.40;;;;;;;15.35;34.55;101108.34;103412;1250;110138;-71
2023/03/01 11:20:04;;;;;;;20.30;13.30;;;;;;;15.26;34.47;101102.02;104043;1250;138335;-69
2023/03/01 11:22:35;;;;;;;21.00;13.40;;;;;;;14.77;34.04;101100.15;104257;1250;96459;-69
2023/03/01 11:25:04;;;;;;;17.60;12.00;;;;;;;14.51;35.06;101096.86;103433;1251;137580;-68
2023/03/01 11:27:41;;;;;;;16.70;11.80;;;;;;;14.37;35.09;101093.83;103595;1254;96453;-66
2023/03/01 11:30:19;;;;;;;16.40;11.90;;;;;;;14.29;35.67;101088.86;103658;1250;137843;-68
2023/03/01 11:32:54;;;;;;;20.90;13.80;;;;;;;14.29;35.83;101086.77;103749;1254;107731;-68
2023/03/01 11:35:26;;;;;;;19.60;12.90;;;;;;;14.15;35.84;101092.30;102608;1250;1002970;-68